sensor_id;sensor_type;location;lat;lon;timestamp;temperature;humidity
22418;DHT22;11376;50.932;4.442;2023-05-27T00:01:00;12.60;99.90
22418;DHT22;11376;50.932;4.442;2023-05-27T00:03:25;12.50;99.90
22418;DHT22;11376;50.932;4.442;2023-05-27T00:05:51;12.50;99.90
22418;DHT22;11376;50.932;4.442;2023-05-27T00:08:17;12.50;99.90
22418;DHT22;11376;50.932;4.442;2023-05-27T00:10:42;12.40;99.90
22418;DHT22;11376;50.932;4.442;2023-05-27T00:13:08;12.30;99.90
22418;DHT22;11376;50.932;4.442;2023-05-27T00:15:33;12.40;99.90
22418;DHT22;11376;50.932;4.442;2023-05-27T00:18:00;12.30;99.90
22418;DHT22;11376;50.932;4.442;2023-05-27T00:20:27;12.20;99.90
22418;DHT22;11376;50.932;4.442;2023-05-27T00:22:55;12.20;99.90
22418;DHT22;11376;50.932;4.442;2023-05-27T00:25:22;12.10;99.90
22418;DHT22;11376;50.932;4.442;2023-05-27T00:27:48;12.20;99.90
22418;DHT22;11376;50.932;4.442;2023-05-27T00:30:13;12.20;99.90
22418;DHT22;11376;50.932;4.442;2023-05-27T00:32:39;12.20;99.90
22418;DHT22;11376;50.932;4.442;2023-05-27T00:35:05;12.10;99.90
22418;DHT22;11376;50.932;4.442;2023-05-27T00:37:30;12.10;99.90
22418;DHT22;11376;50.932;4.442;2023-05-27T00:39:56;12.00;99.90
22418;DHT22;11376;50.932;4.442;2023-05-27T00:42:22;12.00;99.90
22418;DHT22;11376;50.932;4.442;2023-05-27T00:44:47;12.00;99.90
22418;DHT22;11376;50.932;4.442;2023-05-27T00:47:13;11.90;99.90
22418;DHT22;11376;50.932;4.442;2023-05-27T00:49:41;11.90;99.90
22418;DHT22;11376;50.932;4.442;2023-05-27T00:52:07;11.90;99.90
22418;DHT22;11376;50.932;4.442;2023-05-27T00:54:33;11.90;99.90
22418;DHT22;11376;50.932;4.442;2023-05-27T00:56:59;11.80;99.90
22418;DHT22;11376;50.932;4.442;2023-05-27T00:59:26;11.70;99.90
22418;DHT22;11376;50.932;4.442;2023-05-27T01:01:52;11.70;99.90
22418;DHT22;11376;50.932;4.442;2023-05-27T01:04:17;11.70;99.90
22418;DHT22;11376;50.932;4.442;2023-05-27T01:11:58;11.60;99.90
22418;DHT22;11376;50.932;4.442;2023-05-27T01:14:25;11.50;99.90
22418;DHT22;11376;50.932;4.442;2023-05-27T01:16:51;11.50;99.90
22418;DHT22;11376;50.932;4.442;2023-05-27T01:19:27;11.40;99.90
22418;DHT22;11376;50.932;4.442;2023-05-27T01:21:55;11.30;99.90
22418;DHT22;11376;50.932;4.442;2023-05-27T01:24:22;11.30;99.90
22418;DHT22;11376;50.932;4.442;2023-05-27T01:26:47;11.20;99.90
22418;DHT22;11376;50.932;4.442;2023-05-27T01:29:14;11.20;99.90
22418;DHT22;11376;50.932;4.442;2023-05-27T01:34:54;11.20;99.90
22418;DHT22;11376;50.932;4.442;2023-05-27T01:37:21;11.20;99.90
22418;DHT22;11376;50.932;4.442;2023-05-27T01:39:49;11.20;99.90
22418;DHT22;11376;50.932;4.442;2023-05-27T01:42:15;11.20;99.90
22418;DHT22;11376;50.932;4.442;2023-05-27T01:44:41;11.20;99.90
22418;DHT22;11376;50.932;4.442;2023-05-27T01:47:07;11.10;99.90
22418;DHT22;11376;50.932;4.442;2023-05-27T01:49:32;11.10;99.90
22418;DHT22;11376;50.932;4.442;2023-05-27T01:51:58;11.00;99.90
22418;DHT22;11376;50.932;4.442;2023-05-27T01:54:23;11.00;99.90
22418;DHT22;11376;50.932;4.442;2023-05-27T01:56:49;10.90;99.90
22418;DHT22;11376;50.932;4.442;2023-05-27T01:59:15;10.90;99.90
22418;DHT22;11376;50.932;4.442;2023-05-27T02:01:40;10.80;99.90
22418;DHT22;11376;50.932;4.442;2023-05-27T02:04:07;10.80;99.90
22418;DHT22;11376;50.932;4.442;2023-05-27T02:06:33;10.80;99.90
22418;DHT22;11376;50.932;4.442;2023-05-27T02:08:59;10.60;99.90
22418;DHT22;11376;50.932;4.442;2023-05-27T02:11:24;10.60;99.90
22418;DHT22;11376;50.932;4.442;2023-05-27T02:13:51;10.60;99.90
22418;DHT22;11376;50.932;4.442;2023-05-27T02:16:17;10.50;99.90
22418;DHT22;11376;50.932;4.442;2023-05-27T02:18:47;10.40;99.90
22418;DHT22;11376;50.932;4.442;2023-05-27T02:21:14;10.30;99.90
22418;DHT22;11376;50.932;4.442;2023-05-27T02:23:40;10.40;99.90
22418;DHT22;11376;50.932;4.442;2023-05-27T02:26:05;10.50;99.90
22418;DHT22;11376;50.932;4.442;2023-05-27T02:28:31;10.40;99.90
22418;DHT22;11376;50.932;4.442;2023-05-27T02:30:57;10.40;99.90
22418;DHT22;11376;50.932;4.442;2023-05-27T02:33:23;10.40;99.90
22418;DHT22;11376;50.932;4.442;2023-05-27T02:35:49;10.30;99.90
22418;DHT22;11376;50.932;4.442;2023-05-27T02:38:14;10.30;99.90
22418;DHT22;11376;50.932;4.442;2023-05-27T02:40:40;10.40;99.90
22418;DHT22;11376;50.932;4.442;2023-05-27T02:43:06;10.30;99.90
22418;DHT22;11376;50.932;4.442;2023-05-27T02:45:31;10.30;99.90
22418;DHT22;11376;50.932;4.442;2023-05-27T02:47:57;10.30;99.90
22418;DHT22;11376;50.932;4.442;2023-05-27T02:50:25;10.30;99.90
22418;DHT22;11376;50.932;4.442;2023-05-27T02:52:51;10.20;99.90
22418;DHT22;11376;50.932;4.442;2023-05-27T02:55:17;10.20;99.90
22418;DHT22;11376;50.932;4.442;2023-05-27T02:57:42;10.30;99.90
22418;DHT22;11376;50.932;4.442;2023-05-27T03:00:08;10.30;99.90
22418;DHT22;11376;50.932;4.442;2023-05-27T03:02:34;10.20;99.90
22418;DHT22;11376;50.932;4.442;2023-05-27T03:05:00;10.20;99.90
22418;DHT22;11376;50.932;4.442;2023-05-27T03:07:27;10.10;99.90
22418;DHT22;11376;50.932;4.442;2023-05-27T03:09:56;10.10;99.90
22418;DHT22;11376;50.932;4.442;2023-05-27T03:12:22;10.10;99.90
22418;DHT22;11376;50.932;4.442;2023-05-27T03:14:47;10.20;99.90
22418;DHT22;11376;50.932;4.442;2023-05-27T03:17:13;10.10;99.90
22418;DHT22;11376;50.932;4.442;2023-05-27T03:19:38;10.00;99.90
22418;DHT22;11376;50.932;4.442;2023-05-27T03:22:04;10.00;99.90
22418;DHT22;11376;50.932;4.442;2023-05-27T03:24:32;10.00;99.90
22418;DHT22;11376;50.932;4.442;2023-05-27T03:26:59;10.00;99.90
22418;DHT22;11376;50.932;4.442;2023-05-27T03:29:24;10.10;99.90
22418;DHT22;11376;50.932;4.442;2023-05-27T03:31:50;9.90;99.90
22418;DHT22;11376;50.932;4.442;2023-05-27T03:34:16;9.80;99.90
22418;DHT22;11376;50.932;4.442;2023-05-27T03:36:41;9.70;99.90
22418;DHT22;11376;50.932;4.442;2023-05-27T03:39:11;9.70;99.90
22418;DHT22;11376;50.932;4.442;2023-05-27T03:41:37;9.70;99.90
22418;DHT22;11376;50.932;4.442;2023-05-27T03:44:02;9.60;99.90
22418;DHT22;11376;50.932;4.442;2023-05-27T03:46:28;9.70;99.90
22418;DHT22;11376;50.932;4.442;2023-05-27T03:48:53;9.60;99.90
22418;DHT22;11376;50.932;4.442;2023-05-27T03:51:19;9.70;99.90
22418;DHT22;11376;50.932;4.442;2023-05-27T03:53:45;9.70;99.90
22418;DHT22;11376;50.932;4.442;2023-05-27T03:56:11;9.70;99.90
22418;DHT22;11376;50.932;4.442;2023-05-27T03:58:36;9.60;99.90
22418;DHT22;11376;50.932;4.442;2023-05-27T04:01:02;9.70;99.90
22418;DHT22;11376;50.932;4.442;2023-05-27T04:03:28;9.70;99.90
22418;DHT22;11376;50.932;4.442;2023-05-27T04:05:53;9.70;99.90
22418;DHT22;11376;50.932;4.442;2023-05-27T04:08:20;9.70;99.90
22418;DHT22;11376;50.932;4.442;2023-05-27T04:10:48;9.70;99.90
22418;DHT22;11376;50.932;4.442;2023-05-27T04:13:13;9.70;99.90
22418;DHT22;11376;50.932;4.442;2023-05-27T04:15:39;9.70;99.90
22418;DHT22;11376;50.932;4.442;2023-05-27T04:18:04;9.70;99.90
22418;DHT22;11376;50.932;4.442;2023-05-27T04:20:37;9.60;99.90
22418;DHT22;11376;50.932;4.442;2023-05-27T04:23:04;9.60;99.90
22418;DHT22;11376;50.932;4.442;2023-05-27T04:25:30;9.70;99.90
22418;DHT22;11376;50.932;4.442;2023-05-27T04:27:55;9.60;99.90
22418;DHT22;11376;50.932;4.442;2023-05-27T04:30:21;9.60;99.90
22418;DHT22;11376;50.932;4.442;2023-05-27T04:32:47;9.50;99.90
22418;DHT22;11376;50.932;4.442;2023-05-27T04:35:13;9.60;99.90
22418;DHT22;11376;50.932;4.442;2023-05-27T04:37:39;9.60;99.90
22418;DHT22;11376;50.932;4.442;2023-05-27T04:40:06;9.60;99.90
22418;DHT22;11376;50.932;4.442;2023-05-27T04:42:33;9.70;99.90
22418;DHT22;11376;50.932;4.442;2023-05-27T04:45:04;9.80;99.90
22418;DHT22;11376;50.932;4.442;2023-05-27T04:47:34;9.90;99.90
22418;DHT22;11376;50.932;4.442;2023-05-27T04:50:09;9.90;99.90
22418;DHT22;11376;50.932;4.442;2023-05-27T04:52:36;9.90;99.90
22418;DHT22;11376;50.932;4.442;2023-05-27T04:55:07;9.80;99.90
22418;DHT22;11376;50.932;4.442;2023-05-27T04:57:33;10.00;99.90
22418;DHT22;11376;50.932;4.442;2023-05-27T04:59:59;10.00;99.90
22418;DHT22;11376;50.932;4.442;2023-05-27T05:02:31;10.00;99.90
22418;DHT22;11376;50.932;4.442;2023-05-27T05:05:03;10.10;99.90
22418;DHT22;11376;50.932;4.442;2023-05-27T05:07:29;10.10;99.90
22418;DHT22;11376;50.932;4.442;2023-05-27T05:09:55;10.10;99.90
22418;DHT22;11376;50.932;4.442;2023-05-27T05:12:21;10.20;99.90
22418;DHT22;11376;50.932;4.442;2023-05-27T05:14:46;10.30;99.90
22418;DHT22;11376;50.932;4.442;2023-05-27T05:17:12;10.40;99.90
22418;DHT22;11376;50.932;4.442;2023-05-27T05:19:38;10.50;99.90
22418;DHT22;11376;50.932;4.442;2023-05-27T05:22:04;10.50;99.90
22418;DHT22;11376;50.932;4.442;2023-05-27T05:24:30;10.60;99.90
22418;DHT22;11376;50.932;4.442;2023-05-27T05:26:56;10.60;99.90
22418;DHT22;11376;50.932;4.442;2023-05-27T05:29:22;10.60;99.90
22418;DHT22;11376;50.932;4.442;2023-05-27T05:31:47;10.60;99.90
22418;DHT22;11376;50.932;4.442;2023-05-27T05:34:13;10.70;99.90
22418;DHT22;11376;50.932;4.442;2023-05-27T05:36:39;10.70;99.90
22418;DHT22;11376;50.932;4.442;2023-05-27T05:39:04;10.70;99.90
22418;DHT22;11376;50.932;4.442;2023-05-27T05:41:30;10.90;99.90
22418;DHT22;11376;50.932;4.442;2023-05-27T05:43:56;11.10;99.90
22418;DHT22;11376;50.932;4.442;2023-05-27T05:46:22;11.20;99.90
22418;DHT22;11376;50.932;4.442;2023-05-27T05:48:51;11.20;99.90
22418;DHT22;11376;50.932;4.442;2023-05-27T05:51:17;11.30;99.90
22418;DHT22;11376;50.932;4.442;2023-05-27T05:53:43;11.30;99.90
22418;DHT22;11376;50.932;4.442;2023-05-27T05:56:08;11.40;99.90
22418;DHT22;11376;50.932;4.442;2023-05-27T06:01:56;11.50;99.90
22418;DHT22;11376;50.932;4.442;2023-05-27T06:04:22;11.60;99.90
22418;DHT22;11376;50.932;4.442;2023-05-27T06:06:48;11.70;99.90
22418;DHT22;11376;50.932;4.442;2023-05-27T06:09:14;11.70;99.90
22418;DHT22;11376;50.932;4.442;2023-05-27T06:11:40;11.80;99.90
22418;DHT22;11376;50.932;4.442;2023-05-27T06:14:06;12.00;99.90
22418;DHT22;11376;50.932;4.442;2023-05-27T06:16:33;12.00;99.90
22418;DHT22;11376;50.932;4.442;2023-05-27T06:19:01;12.10;99.90
22418;DHT22;11376;50.932;4.442;2023-05-27T06:21:27;12.30;99.90
22418;DHT22;11376;50.932;4.442;2023-05-27T06:23:55;12.50;99.90
22418;DHT22;11376;50.932;4.442;2023-05-27T06:26:21;12.60;99.90
22418;DHT22;11376;50.932;4.442;2023-05-27T06:28:46;12.60;99.90
22418;DHT22;11376;50.932;4.442;2023-05-27T06:31:12;12.60;99.90
22418;DHT22;11376;50.932;4.442;2023-05-27T06:33:38;12.80;99.90
22418;DHT22;11376;50.932;4.442;2023-05-27T06:36:04;12.70;99.90
22418;DHT22;11376;50.932;4.442;2023-05-27T06:38:29;12.70;99.90
22418;DHT22;11376;50.932;4.442;2023-05-27T06:40:55;12.80;99.90
22418;DHT22;11376;50.932;4.442;2023-05-27T06:43:21;13.00;99.90
22418;DHT22;11376;50.932;4.442;2023-05-27T06:45:47;13.00;99.90
22418;DHT22;11376;50.932;4.442;2023-05-27T06:48:12;13.10;99.90
22418;DHT22;11376;50.932;4.442;2023-05-27T06:50:38;13.30;99.90
22418;DHT22;11376;50.932;4.442;2023-05-27T06:53:04;13.30;99.90
22418;DHT22;11376;50.932;4.442;2023-05-27T06:55:30;13.50;99.90
22418;DHT22;11376;50.932;4.442;2023-05-27T06:57:56;13.50;99.90
22418;DHT22;11376;50.932;4.442;2023-05-27T07:00:27;13.70;99.90
22418;DHT22;11376;50.932;4.442;2023-05-27T07:02:53;13.90;99.90
22418;DHT22;11376;50.932;4.442;2023-05-27T07:05:19;13.80;99.90
22418;DHT22;11376;50.932;4.442;2023-05-27T07:07:45;14.00;99.90
22418;DHT22;11376;50.932;4.442;2023-05-27T07:10:11;14.10;99.90
22418;DHT22;11376;50.932;4.442;2023-05-27T07:12:36;14.30;99.90
22418;DHT22;11376;50.932;4.442;2023-05-27T07:15:03;14.40;99.90
22418;DHT22;11376;50.932;4.442;2023-05-27T07:17:28;14.40;99.90
22418;DHT22;11376;50.932;4.442;2023-05-27T07:19:54;14.40;99.90
22418;DHT22;11376;50.932;4.442;2023-05-27T07:22:20;14.70;99.90
22418;DHT22;11376;50.932;4.442;2023-05-27T07:24:49;14.70;99.90
22418;DHT22;11376;50.932;4.442;2023-05-27T07:27:14;14.90;99.90
22418;DHT22;11376;50.932;4.442;2023-05-27T07:29:40;15.10;99.90
22418;DHT22;11376;50.932;4.442;2023-05-27T07:32:06;15.10;99.90
22418;DHT22;11376;50.932;4.442;2023-05-27T07:34:32;15.10;99.90
22418;DHT22;11376;50.932;4.442;2023-05-27T07:36:58;15.30;99.90
22418;DHT22;11376;50.932;4.442;2023-05-27T07:39:24;15.30;99.90
22418;DHT22;11376;50.932;4.442;2023-05-27T07:41:50;15.30;99.90
22418;DHT22;11376;50.932;4.442;2023-05-27T07:44:15;15.40;99.90
22418;DHT22;11376;50.932;4.442;2023-05-27T07:46:41;15.40;99.90
22418;DHT22;11376;50.932;4.442;2023-05-27T07:49:07;15.50;99.90
22418;DHT22;11376;50.932;4.442;2023-05-27T07:51:32;15.40;99.90
22418;DHT22;11376;50.932;4.442;2023-05-27T07:53:58;15.50;99.90
22418;DHT22;11376;50.932;4.442;2023-05-27T07:56:23;15.60;99.90
22418;DHT22;11376;50.932;4.442;2023-05-27T07:58:49;15.70;99.90
22418;DHT22;11376;50.932;4.442;2023-05-27T08:01:15;15.80;99.90
22418;DHT22;11376;50.932;4.442;2023-05-27T08:03:40;15.90;99.90
22418;DHT22;11376;50.932;4.442;2023-05-27T08:06:06;16.00;99.90
22418;DHT22;11376;50.932;4.442;2023-05-27T08:08:32;16.10;99.90
22418;DHT22;11376;50.932;4.442;2023-05-27T08:10:57;16.10;99.90
22418;DHT22;11376;50.932;4.442;2023-05-27T08:13:23;16.30;99.90
22418;DHT22;11376;50.932;4.442;2023-05-27T08:15:49;16.50;99.90
22418;DHT22;11376;50.932;4.442;2023-05-27T08:18:14;16.70;99.90
22418;DHT22;11376;50.932;4.442;2023-05-27T08:20:40;16.80;99.90
22418;DHT22;11376;50.932;4.442;2023-05-27T08:23:05;16.90;99.90
22418;DHT22;11376;50.932;4.442;2023-05-27T08:25:31;17.20;99.90
22418;DHT22;11376;50.932;4.442;2023-05-27T08:27:57;17.00;99.90
22418;DHT22;11376;50.932;4.442;2023-05-27T08:30:27;17.10;99.90
22418;DHT22;11376;50.932;4.442;2023-05-27T08:32:53;17.40;99.90
22418;DHT22;11376;50.932;4.442;2023-05-27T08:35:19;17.40;99.90
22418;DHT22;11376;50.932;4.442;2023-05-27T08:37:45;17.60;99.90
22418;DHT22;11376;50.932;4.442;2023-05-27T08:40:12;17.80;99.90
22418;DHT22;11376;50.932;4.442;2023-05-27T08:42:39;18.00;99.90
22418;DHT22;11376;50.932;4.442;2023-05-27T08:45:05;18.30;99.90
22418;DHT22;11376;50.932;4.442;2023-05-27T08:47:31;18.40;99.90
22418;DHT22;11376;50.932;4.442;2023-05-27T08:49:57;18.60;99.90
22418;DHT22;11376;50.932;4.442;2023-05-27T08:52:24;18.60;99.90
22418;DHT22;11376;50.932;4.442;2023-05-27T08:54:51;18.60;99.90
22418;DHT22;11376;50.932;4.442;2023-05-27T08:57:18;18.40;99.90
22418;DHT22;11376;50.932;4.442;2023-05-27T08:59:46;18.30;99.90
22418;DHT22;11376;50.932;4.442;2023-05-27T09:02:12;18.40;99.90
22418;DHT22;11376;50.932;4.442;2023-05-27T09:04:41;18.70;99.90
22418;DHT22;11376;50.932;4.442;2023-05-27T09:07:07;19.00;99.90
22418;DHT22;11376;50.932;4.442;2023-05-27T09:09:33;19.20;99.90
22418;DHT22;11376;50.932;4.442;2023-05-27T09:11:59;19.20;99.90
22418;DHT22;11376;50.932;4.442;2023-05-27T09:14:27;19.20;99.90
22418;DHT22;11376;50.932;4.442;2023-05-27T09:16:53;19.30;99.90
22418;DHT22;11376;50.932;4.442;2023-05-27T09:19:18;19.40;99.90
22418;DHT22;11376;50.932;4.442;2023-05-27T09:21:44;19.40;99.90
22418;DHT22;11376;50.932;4.442;2023-05-27T09:24:10;19.50;99.90
22418;DHT22;11376;50.932;4.442;2023-05-27T09:26:36;19.60;99.90
22418;DHT22;11376;50.932;4.442;2023-05-27T09:29:08;19.60;99.90
22418;DHT22;11376;50.932;4.442;2023-05-27T09:31:40;19.70;99.90
22418;DHT22;11376;50.932;4.442;2023-05-27T09:34:13;19.70;99.90
22418;DHT22;11376;50.932;4.442;2023-05-27T09:36:46;19.60;99.90
22418;DHT22;11376;50.932;4.442;2023-05-27T09:39:13;19.60;99.90
22418;DHT22;11376;50.932;4.442;2023-05-27T09:41:38;19.80;99.90
22418;DHT22;11376;50.932;4.442;2023-05-27T09:44:05;19.90;99.90
22418;DHT22;11376;50.932;4.442;2023-05-27T09:46:34;19.90;99.90
22418;DHT22;11376;50.932;4.442;2023-05-27T09:48:59;20.00;99.90
22418;DHT22;11376;50.932;4.442;2023-05-27T09:51:26;20.00;99.90
22418;DHT22;11376;50.932;4.442;2023-05-27T09:53:52;20.10;99.90
22418;DHT22;11376;50.932;4.442;2023-05-27T09:56:18;20.30;99.90
22418;DHT22;11376;50.932;4.442;2023-05-27T09:58:44;20.30;99.90
22418;DHT22;11376;50.932;4.442;2023-05-27T10:01:10;20.30;99.90
22418;DHT22;11376;50.932;4.442;2023-05-27T10:03:36;20.40;99.90
22418;DHT22;11376;50.932;4.442;2023-05-27T10:06:03;20.50;99.90
22418;DHT22;11376;50.932;4.442;2023-05-27T10:08:30;20.60;99.90
22418;DHT22;11376;50.932;4.442;2023-05-27T10:10:55;20.70;99.90
22418;DHT22;11376;50.932;4.442;2023-05-27T10:13:21;20.70;99.90
22418;DHT22;11376;50.932;4.442;2023-05-27T10:15:47;20.60;99.90
22418;DHT22;11376;50.932;4.442;2023-05-27T10:18:25;20.90;99.90
22418;DHT22;11376;50.932;4.442;2023-05-27T10:20:51;20.80;99.90
22418;DHT22;11376;50.932;4.442;2023-05-27T10:30:51;21.20;99.90
22418;DHT22;11376;50.932;4.442;2023-05-27T10:33:17;21.30;99.90
22418;DHT22;11376;50.932;4.442;2023-05-27T10:35:51;21.30;99.90
22418;DHT22;11376;50.932;4.442;2023-05-27T10:38:17;21.30;99.90
22418;DHT22;11376;50.932;4.442;2023-05-27T10:40:46;21.50;99.90
22418;DHT22;11376;50.932;4.442;2023-05-27T10:43:16;21.70;99.90
22418;DHT22;11376;50.932;4.442;2023-05-27T10:45:42;21.90;99.90
22418;DHT22;11376;50.932;4.442;2023-05-27T10:48:41;22.10;99.90
22418;DHT22;11376;50.932;4.442;2023-05-27T10:50:59;22.10;99.90
22418;DHT22;11376;50.932;4.442;2023-05-27T10:53:26;22.30;99.90
22418;DHT22;11376;50.932;4.442;2023-05-27T10:55:52;22.30;99.90
22418;DHT22;11376;50.932;4.442;2023-05-27T10:58:18;22.60;99.90
22418;DHT22;11376;50.932;4.442;2023-05-27T11:00:44;23.10;99.90
22418;DHT22;11376;50.932;4.442;2023-05-27T11:07:04;24.40;99.90
22418;DHT22;11376;50.932;4.442;2023-05-27T11:09:30;24.90;99.90
22418;DHT22;11376;50.932;4.442;2023-05-27T11:11:56;26.00;99.90
22418;DHT22;11376;50.932;4.442;2023-05-27T11:14:22;27.60;98.10
22418;DHT22;11376;50.932;4.442;2023-05-27T11:16:49;29.20;94.40
22418;DHT22;11376;50.932;4.442;2023-05-27T11:19:17;29.90;91.00
22418;DHT22;11376;50.932;4.442;2023-05-27T11:21:46;31.30;85.10
22418;DHT22;11376;50.932;4.442;2023-05-27T11:24:19;32.40;73.90
22418;DHT22;11376;50.932;4.442;2023-05-27T11:26:45;32.80;66.30
22418;DHT22;11376;50.932;4.442;2023-05-27T11:29:14;33.30;62.00
22418;DHT22;11376;50.932;4.442;2023-05-27T11:31:40;34.80;56.10
22418;DHT22;11376;50.932;4.442;2023-05-27T11:34:13;35.70;53.30
22418;DHT22;11376;50.932;4.442;2023-05-27T11:36:39;36.00;50.30
22418;DHT22;11376;50.932;4.442;2023-05-27T11:39:05;36.50;44.30
22418;DHT22;11376;50.932;4.442;2023-05-27T11:41:32;37.60;42.70
22418;DHT22;11376;50.932;4.442;2023-05-27T11:44:04;39.20;39.60
22418;DHT22;11376;50.932;4.442;2023-05-27T11:46:36;40.40;38.00
22418;DHT22;11376;50.932;4.442;2023-05-27T11:49:03;40.20;36.60
22418;DHT22;11376;50.932;4.442;2023-05-27T11:51:30;41.20;33.80
22418;DHT22;11376;50.932;4.442;2023-05-27T11:53:58;41.20;33.60
22418;DHT22;11376;50.932;4.442;2023-05-27T11:56:24;40.30;33.20
22418;DHT22;11376;50.932;4.442;2023-05-27T11:58:50;40.60;33.10
22418;DHT22;11376;50.932;4.442;2023-05-27T12:01:16;39.80;33.10
22418;DHT22;11376;50.932;4.442;2023-05-27T12:03:42;39.10;33.30
22418;DHT22;11376;50.932;4.442;2023-05-27T12:06:08;40.00;32.60
22418;DHT22;11376;50.932;4.442;2023-05-27T12:08:33;39.40;33.60
22418;DHT22;11376;50.932;4.442;2023-05-27T12:10:59;39.10;33.60
22418;DHT22;11376;50.932;4.442;2023-05-27T12:13:25;39.90;33.60
22418;DHT22;11376;50.932;4.442;2023-05-27T12:15:51;39.80;32.70
22418;DHT22;11376;50.932;4.442;2023-05-27T12:18:17;38.90;32.50
22418;DHT22;11376;50.932;4.442;2023-05-27T12:20:44;39.40;32.50
22418;DHT22;11376;50.932;4.442;2023-05-27T12:23:10;39.30;31.80
22418;DHT22;11376;50.932;4.442;2023-05-27T12:25:36;40.80;29.60
22418;DHT22;11376;50.932;4.442;2023-05-27T12:28:02;41.50;29.70
22418;DHT22;11376;50.932;4.442;2023-05-27T12:30:29;41.70;29.10
22418;DHT22;11376;50.932;4.442;2023-05-27T12:32:54;40.80;29.10
22418;DHT22;11376;50.932;4.442;2023-05-27T12:35:20;40.50;29.90
22418;DHT22;11376;50.932;4.442;2023-05-27T12:37:46;41.60;29.50
22418;DHT22;11376;50.932;4.442;2023-05-27T12:40:12;42.00;29.10
22418;DHT22;11376;50.932;4.442;2023-05-27T12:42:40;42.80;28.70
22418;DHT22;11376;50.932;4.442;2023-05-27T12:45:09;43.00;28.90
22418;DHT22;11376;50.932;4.442;2023-05-27T12:47:35;42.10;28.50
22418;DHT22;11376;50.932;4.442;2023-05-27T12:50:00;43.20;27.50
22418;DHT22;11376;50.932;4.442;2023-05-27T12:52:26;42.80;28.00
22418;DHT22;11376;50.932;4.442;2023-05-27T12:54:53;42.70;27.80
22418;DHT22;11376;50.932;4.442;2023-05-27T12:57:19;43.50;27.20
22418;DHT22;11376;50.932;4.442;2023-05-27T12:59:45;44.00;27.40
22418;DHT22;11376;50.932;4.442;2023-05-27T13:02:11;43.10;26.90
22418;DHT22;11376;50.932;4.442;2023-05-27T13:04:37;42.40;27.40
22418;DHT22;11376;50.932;4.442;2023-05-27T13:07:02;42.90;27.10
22418;DHT22;11376;50.932;4.442;2023-05-27T13:09:28;42.30;26.40
22418;DHT22;11376;50.932;4.442;2023-05-27T13:11:55;42.90;26.90
22418;DHT22;11376;50.932;4.442;2023-05-27T13:14:22;43.50;26.00
22418;DHT22;11376;50.932;4.442;2023-05-27T13:16:48;43.10;26.20
22418;DHT22;11376;50.932;4.442;2023-05-27T13:19:14;43.20;25.80
22418;DHT22;11376;50.932;4.442;2023-05-27T13:21:41;41.00;26.70
22418;DHT22;11376;50.932;4.442;2023-05-27T13:24:06;41.00;27.60
22418;DHT22;11376;50.932;4.442;2023-05-27T13:26:32;42.50;25.90
22418;DHT22;11376;50.932;4.442;2023-05-27T13:28:58;42.50;25.80
22418;DHT22;11376;50.932;4.442;2023-05-27T13:31:24;42.00;26.60
22418;DHT22;11376;50.932;4.442;2023-05-27T13:33:50;42.20;26.40
22418;DHT22;11376;50.932;4.442;2023-05-27T13:36:16;41.60;26.90
22418;DHT22;11376;50.932;4.442;2023-05-27T13:38:41;42.00;26.80
22418;DHT22;11376;50.932;4.442;2023-05-27T13:41:07;41.80;27.10
22418;DHT22;11376;50.932;4.442;2023-05-27T13:43:33;40.90;27.20
22418;DHT22;11376;50.932;4.442;2023-05-27T13:45:59;42.20;26.70
22418;DHT22;11376;50.932;4.442;2023-05-27T13:48:24;42.80;26.50
22418;DHT22;11376;50.932;4.442;2023-05-27T13:50:50;42.40;26.10
22418;DHT22;11376;50.932;4.442;2023-05-27T13:53:16;42.30;27.00
22418;DHT22;11376;50.932;4.442;2023-05-27T13:55:42;42.60;26.80
22418;DHT22;11376;50.932;4.442;2023-05-27T13:58:08;42.30;25.90
22418;DHT22;11376;50.932;4.442;2023-05-27T14:00:34;42.40;26.00
22418;DHT22;11376;50.932;4.442;2023-05-27T14:03:00;41.80;26.30
22418;DHT22;11376;50.932;4.442;2023-05-27T14:05:26;41.60;26.00
22418;DHT22;11376;50.932;4.442;2023-05-27T14:07:52;42.90;25.60
22418;DHT22;11376;50.932;4.442;2023-05-27T14:10:18;43.40;25.20
22418;DHT22;11376;50.932;4.442;2023-05-27T14:12:44;43.90;25.20
22418;DHT22;11376;50.932;4.442;2023-05-27T14:15:10;43.70;25.40
22418;DHT22;11376;50.932;4.442;2023-05-27T14:17:36;43.20;25.20
22418;DHT22;11376;50.932;4.442;2023-05-27T14:20:03;41.70;25.80
22418;DHT22;11376;50.932;4.442;2023-05-27T14:22:29;40.90;26.90
22418;DHT22;11376;50.932;4.442;2023-05-27T14:24:55;40.60;26.30
22418;DHT22;11376;50.932;4.442;2023-05-27T14:27:20;40.60;26.70
22418;DHT22;11376;50.932;4.442;2023-05-27T14:29:46;40.70;26.70
22418;DHT22;11376;50.932;4.442;2023-05-27T14:32:12;41.50;26.30
22418;DHT22;11376;50.932;4.442;2023-05-27T14:34:38;42.20;25.40
22418;DHT22;11376;50.932;4.442;2023-05-27T14:37:03;41.80;25.30
22418;DHT22;11376;50.932;4.442;2023-05-27T14:39:29;41.10;26.00
22418;DHT22;11376;50.932;4.442;2023-05-27T14:41:55;41.00;25.90
22418;DHT22;11376;50.932;4.442;2023-05-27T14:44:21;41.10;26.10
22418;DHT22;11376;50.932;4.442;2023-05-27T14:46:46;41.50;26.10
22418;DHT22;11376;50.932;4.442;2023-05-27T14:49:12;40.80;25.90
22418;DHT22;11376;50.932;4.442;2023-05-27T14:51:38;40.80;26.10
22418;DHT22;11376;50.932;4.442;2023-05-27T14:54:04;40.90;26.20
22418;DHT22;11376;50.932;4.442;2023-05-27T14:56:30;40.80;26.50
22418;DHT22;11376;50.932;4.442;2023-05-27T14:58:56;40.90;25.70
22418;DHT22;11376;50.932;4.442;2023-05-27T15:01:22;41.10;25.90
22418;DHT22;11376;50.932;4.442;2023-05-27T15:03:47;41.10;25.40
22418;DHT22;11376;50.932;4.442;2023-05-27T15:06:13;41.50;25.50
22418;DHT22;11376;50.932;4.442;2023-05-27T15:08:39;40.80;26.40
22418;DHT22;11376;50.932;4.442;2023-05-27T15:11:05;40.90;25.70
22418;DHT22;11376;50.932;4.442;2023-05-27T15:13:31;40.70;26.00
22418;DHT22;11376;50.932;4.442;2023-05-27T15:15:58;40.50;26.00
22418;DHT22;11376;50.932;4.442;2023-05-27T15:18:24;39.90;26.90
22418;DHT22;11376;50.932;4.442;2023-05-27T15:20:49;40.00;27.50
22418;DHT22;11376;50.932;4.442;2023-05-27T15:23:15;40.60;26.70
22418;DHT22;11376;50.932;4.442;2023-05-27T15:25:41;41.00;26.30
22418;DHT22;11376;50.932;4.442;2023-05-27T15:28:07;41.00;25.90
22418;DHT22;11376;50.932;4.442;2023-05-27T15:30:36;41.00;26.20
22418;DHT22;11376;50.932;4.442;2023-05-27T15:33:01;40.70;26.30
22418;DHT22;11376;50.932;4.442;2023-05-27T15:35:27;40.50;26.00
22418;DHT22;11376;50.932;4.442;2023-05-27T15:37:53;40.50;26.10
22418;DHT22;11376;50.932;4.442;2023-05-27T15:40:19;40.50;26.00
22418;DHT22;11376;50.932;4.442;2023-05-27T15:42:44;40.50;26.30
22418;DHT22;11376;50.932;4.442;2023-05-27T15:45:10;39.00;27.20
22418;DHT22;11376;50.932;4.442;2023-05-27T15:47:36;38.20;27.20
22418;DHT22;11376;50.932;4.442;2023-05-27T15:50:02;38.00;28.10